createdAt,value
2022-12-06T00:01:32.125Z,3.65
2022-12-06T00:04:03.557Z,3.15
2022-12-06T00:06:37.459Z,3.70
2022-12-06T00:09:06.501Z,3.78
2022-12-06T00:11:36.746Z,3.38
2022-12-06T00:14:07.171Z,3.50
2022-12-06T00:16:36.392Z,3.80
2022-12-06T00:19:05.639Z,3.58
2022-12-06T00:21:37.094Z,3.55
2022-12-06T00:24:07.316Z,3.20
2022-12-06T00:26:37.083Z,3.70
2022-12-06T00:29:06.544Z,3.58
2022-12-06T00:31:35.804Z,3.30
2022-12-06T00:34:05.778Z,3.30
2022-12-06T00:36:37.383Z,3.95
2022-12-06T00:39:08.038Z,3.33
2022-12-06T00:41:36.722Z,3.50
2022-12-06T00:44:05.767Z,3.63
2022-12-06T00:46:35.278Z,3.03
2022-12-06T00:49:06.221Z,3.08
2022-12-06T00:51:37.587Z,3.08
2022-12-06T00:54:07.368Z,2.85
2022-12-06T00:56:37.123Z,3.00
2022-12-06T00:59:06.881Z,3.35
2022-12-06T01:01:36.731Z,3.35
2022-12-06T01:04:07.246Z,3.05
2022-12-06T01:06:38.462Z,3.13
2022-12-06T01:09:09.831Z,3.35
2022-12-06T01:11:38.949Z,3.00
2022-12-06T01:14:07.605Z,2.85
2022-12-06T01:16:36.413Z,2.90
2022-12-06T01:19:06.679Z,2.88
2022-12-06T01:21:35.201Z,3.00
2022-12-06T01:24:05.564Z,3.00
2022-12-06T01:26:36.890Z,2.85
2022-12-06T01:29:05.603Z,3.00
2022-12-06T01:31:38.649Z,3.10
2022-12-06T01:34:09.005Z,2.72
2022-12-06T01:36:37.520Z,3.00
2022-12-06T01:39:10.529Z,2.90
2022-12-06T01:41:39.966Z,3.03
2022-12-06T01:44:29.046Z,2.65
2022-12-06T01:46:58.807Z,2.53
2022-12-06T01:49:34.457Z,3.08
2022-12-06T01:52:07.072Z,2.72
2022-12-06T01:54:35.965Z,2.90
2022-12-06T01:57:08.147Z,2.72
2022-12-06T01:59:37.235Z,2.67
2022-12-06T02:02:08.273Z,2.72
2022-12-06T02:04:37.406Z,2.25
2022-12-06T02:07:07.376Z,2.50
2022-12-06T02:09:37.809Z,2.80
2022-12-06T02:12:13.071Z,2.65
2022-12-06T02:14:44.630Z,2.85
2022-12-06T02:17:40.105Z,2.38
2022-12-06T02:20:23.309Z,2.85
2022-12-06T02:23:19.245Z,2.40
2022-12-06T02:26:16.043Z,2.78
2022-12-06T02:29:09.562Z,2.85
2022-12-06T02:31:44.199Z,2.58
2022-12-06T02:34:17.284Z,2.53
2022-12-06T02:36:53.755Z,2.75
2022-12-06T02:39:28.493Z,2.72
2022-12-06T02:42:00.150Z,2.60
2022-12-06T02:44:34.374Z,2.20
2022-12-06T02:47:06.564Z,2.60
2022-12-06T02:49:38.439Z,2.65
2022-12-06T02:52:07.123Z,2.42
2022-12-06T02:54:35.673Z,2.55
2022-12-06T02:57:04.234Z,2.58
2022-12-06T02:59:32.615Z,2.30
2022-12-06T03:02:06.082Z,2.35
2022-12-06T03:04:56.360Z,2.60
2022-12-06T03:07:40.865Z,2.60
2022-12-06T03:10:23.142Z,2.47
2022-12-06T03:13:02.272Z,2.53
2022-12-06T03:15:41.839Z,2.58
2022-12-06T03:18:18.463Z,2.60
2022-12-06T03:20:52.220Z,2.50
2022-12-06T03:23:25.192Z,2.15
2022-12-06T03:25:56.426Z,2.20
2022-12-06T03:28:25.268Z,2.45
2022-12-06T03:30:58.679Z,2.20
2022-12-06T03:33:30.962Z,2.30
2022-12-06T03:36:00.355Z,2.47
2022-12-06T03:38:33.609Z,2.22
2022-12-06T03:41:04.790Z,2.30
2022-12-06T03:43:34.243Z,2.42
2022-12-06T03:46:07.767Z,2.33
2022-12-06T03:48:41.682Z,2.35
2022-12-06T03:51:14.940Z,2.17
2022-12-06T03:53:47.842Z,2.35
2022-12-06T03:56:16.984Z,2.40
2022-12-06T03:58:45.667Z,2.20
2022-12-06T04:01:14.223Z,2.38
2022-12-06T04:03:44.078Z,2.30
2022-12-06T04:06:13.258Z,2.50
2022-12-06T04:08:41.974Z,2.03
2022-12-06T04:11:10.396Z,1.92
2022-12-06T04:13:39.422Z,2.00
2022-12-06T04:16:29.185Z,2.20
2022-12-06T04:18:57.976Z,2.30
2022-12-06T04:21:43.764Z,2.38
2022-12-06T04:24:12.143Z,2.10
2022-12-06T04:26:40.579Z,2.25
2022-12-06T04:29:26.739Z,2.08
2022-12-06T04:32:12.604Z,2.20
2022-12-06T04:34:59.988Z,2.35
2022-12-06T04:37:46.223Z,1.92
2022-12-06T04:40:14.715Z,1.90
2022-12-06T04:43:03.010Z,2.10
2022-12-06T04:45:31.375Z,2.25
2022-12-06T04:47:59.770Z,2.13
2022-12-06T04:50:29.490Z,2.10
2022-12-06T04:52:57.908Z,2.20
2022-12-06T04:55:26.311Z,2.20
2022-12-06T04:57:54.687Z,2.08
2022-12-06T05:00:23.386Z,2.10
2022-12-06T05:02:51.792Z,2.03
2022-12-06T05:05:20.190Z,2.30
2022-12-06T05:07:49.992Z,2.10
2022-12-06T05:10:18.472Z,1.85
2022-12-06T05:12:46.865Z,1.90
2022-12-06T05:15:16.046Z,2.05
2022-12-06T05:17:44.455Z,1.98
2022-12-06T05:20:14.337Z,2.05
2022-12-06T05:22:42.841Z,2.05
2022-12-06T05:25:12.673Z,1.90
2022-12-06T05:27:41.076Z,1.90
2022-12-06T05:30:10.790Z,2.17
2022-12-06T05:32:39.449Z,1.90
2022-12-06T05:35:09.088Z,2.08
2022-12-06T05:37:37.460Z,2.25
2022-12-06T05:40:07.247Z,2.25
2022-12-06T05:42:37.635Z,2.17
2022-12-06T05:45:06.964Z,2.05
2022-12-06T05:47:35.591Z,2.15
2022-12-06T05:50:05.492Z,1.98
2022-12-06T05:52:33.880Z,1.90
2022-12-06T05:55:02.278Z,1.80
2022-12-06T05:57:30.662Z,2.00
2022-12-06T06:00:00.763Z,2.08
2022-12-06T06:02:29.412Z,2.25
2022-12-06T06:04:57.947Z,1.90
2022-12-06T06:07:26.356Z,2.03
2022-12-06T06:09:54.768Z,2.03
2022-12-06T06:12:23.248Z,1.70
2022-12-06T06:14:51.711Z,1.88
2022-12-06T06:17:21.483Z,2.10
2022-12-06T06:19:51.507Z,1.98
2022-12-06T06:22:22.225Z,1.90
2022-12-06T06:24:51.591Z,1.70
2022-12-06T06:27:20.098Z,1.77
2022-12-06T06:29:48.561Z,1.80
2022-12-06T06:32:17.030Z,1.95
2022-12-06T06:34:47.029Z,1.90
2022-12-06T06:37:15.481Z,1.88
2022-12-06T06:39:43.926Z,1.70
2022-12-06T06:42:12.359Z,2.10
2022-12-06T06:44:40.792Z,1.85
2022-12-06T06:47:09.233Z,1.70
2022-12-06T06:49:37.915Z,1.80
2022-12-06T06:52:07.956Z,1.70
2022-12-06T06:54:36.497Z,1.80
2022-12-06T06:57:05.120Z,1.80
2022-12-06T06:59:33.641Z,1.75
2022-12-06T07:02:02.131Z,2.30
2022-12-06T07:04:30.570Z,1.80
2022-12-06T07:07:00.530Z,1.80
2022-12-06T07:09:30.419Z,1.80
2022-12-06T07:11:58.807Z,2.00
2022-12-06T07:14:27.235Z,1.85
2022-12-06T07:16:55.786Z,1.83
2022-12-06T07:19:24.275Z,2.10
2022-12-06T07:21:52.730Z,1.73
2022-12-06T07:24:21.258Z,1.80
2022-12-06T07:26:51.120Z,2.47
2022-12-06T07:29:19.576Z,2.00
2022-12-06T07:31:48.075Z,2.00
2022-12-06T07:34:16.674Z,2.05
2022-12-06T07:36:45.147Z,2.40
2022-12-06T07:39:15.131Z,1.77
2022-12-06T07:42:01.358Z,1.90
2022-12-06T07:45:02.192Z,1.80
2022-12-06T07:47:37.123Z,2.00
2022-12-06T07:50:08.107Z,2.10
2022-12-06T07:52:38.546Z,2.20
2022-12-06T07:55:08.311Z,2.10
2022-12-06T07:57:42.952Z,2.15
2022-12-06T08:00:15.977Z,1.90
2022-12-06T08:02:44.927Z,2.08
2022-12-06T08:05:14.019Z,2.00
2022-12-06T08:07:42.463Z,1.98
2022-12-06T08:10:11.191Z,2.10
2022-12-06T08:12:39.568Z,2.28
2022-12-06T08:15:12.924Z,2.10
2022-12-06T08:17:43.153Z,2.10
2022-12-06T08:20:12.908Z,2.28
2022-12-06T08:22:41.431Z,2.45
2022-12-06T08:25:10.785Z,2.10
2022-12-06T08:27:39.194Z,2.10
2022-12-06T08:30:09.055Z,2.20
2022-12-06T08:32:37.488Z,2.20
2022-12-06T08:35:08.043Z,2.20
2022-12-06T08:37:36.487Z,2.30
2022-12-06T08:40:05.873Z,2.03
2022-12-06T08:42:34.423Z,1.90
2022-12-06T08:45:02.897Z,1.80
2022-12-06T08:47:31.860Z,2.30
2022-12-06T08:50:00.683Z,2.20
2022-12-06T08:52:30.771Z,2.00
2022-12-06T08:54:59.266Z,2.05
2022-12-06T08:57:27.628Z,2.50
2022-12-06T08:59:56.107Z,2.42
2022-12-06T09:02:24.528Z,2.20
2022-12-06T09:04:53.033Z,2.30
2022-12-06T09:07:22.941Z,1.90
2022-12-06T09:09:54.242Z,2.38
2022-12-06T09:12:22.891Z,2.30
2022-12-06T09:14:51.495Z,2.20
2022-12-06T09:17:19.927Z,1.98
2022-12-06T09:19:48.542Z,2.00
2022-12-06T09:22:16.990Z,2.13
2022-12-06T09:24:45.384Z,2.30
2022-12-06T09:27:15.190Z,2.20
2022-12-06T09:29:43.660Z,2.15
2022-12-06T09:32:12.110Z,2.08
2022-12-06T09:34:40.454Z,2.20
2022-12-06T09:37:14.071Z,2.10
2022-12-06T09:39:45.310Z,2.10
2022-12-06T09:42:43.459Z,2.15
2022-12-06T09:45:25.676Z,1.92
2022-12-06T09:48:11.228Z,2.33
2022-12-06T09:50:50.363Z,1.95
2022-12-06T09:53:28.486Z,2.40
2022-12-06T09:56:06.395Z,2.28
2022-12-06T09:58:58.841Z,1.80
2022-12-06T10:01:39.467Z,2.22
2022-12-06T10:04:30.440Z,2.13
2022-12-06T10:07:08.654Z,1.98
2022-12-06T10:09:50.379Z,2.13
2022-12-06T10:12:30.891Z,2.00
2022-12-06T10:15:16.536Z,2.20
2022-12-06T10:18:03.105Z,2.00
2022-12-06T10:20:39.874Z,1.70
2022-12-06T10:23:21.462Z,2.08
2022-12-06T10:26:00.898Z,2.10
2022-12-06T10:28:39.662Z,1.92
2022-12-06T10:31:19.879Z,1.88
2022-12-06T10:33:55.245Z,2.03
2022-12-06T10:36:39.388Z,2.10
2022-12-06T10:39:18.460Z,2.13
2022-12-06T10:41:52.633Z,2.10
2022-12-06T10:44:26.567Z,2.13
2022-12-06T10:49:45.523Z,2.00
2022-12-06T10:52:26.378Z,2.03
2022-12-06T10:55:06.230Z,2.03
2022-12-06T10:57:43.810Z,2.10
2022-12-06T11:00:16.724Z,2.30
2022-12-06T11:02:54.404Z,2.03
2022-12-06T11:05:29.252Z,2.00
2022-12-06T11:08:04.259Z,2.38
2022-12-06T11:10:36.391Z,2.33
2022-12-06T11:13:16.119Z,2.20
2022-12-06T11:15:51.726Z,2.13
2022-12-06T11:18:21.483Z,2.05
2022-12-06T11:20:58.667Z,2.22
2022-12-06T11:23:36.165Z,1.85
2022-12-06T11:26:13.848Z,2.25
2022-12-06T11:28:44.716Z,1.92
2022-12-06T11:31:24.734Z,2.10
2022-12-06T11:33:53.573Z,1.85
2022-12-06T11:36:25.602Z,2.10
2022-12-06T11:38:54.246Z,1.88
2022-12-06T11:41:27.468Z,1.98
2022-12-06T11:43:57.139Z,2.10
2022-12-06T11:46:26.835Z,1.67
2022-12-06T11:48:58.721Z,2.17
2022-12-06T11:51:28.515Z,2.53
2022-12-06T11:54:03.623Z,2.30
2022-12-06T11:56:35.365Z,1.95
2022-12-06T11:59:20.459Z,2.00
2022-12-06T12:01:51.635Z,1.90
2022-12-06T12:04:37.808Z,2.38
2022-12-06T12:07:16.075Z,2.00
2022-12-06T12:09:51.046Z,1.98
2022-12-06T12:12:22.258Z,2.30
2022-12-06T12:14:57.675Z,1.90
2022-12-06T12:17:31.239Z,2.10
2022-12-06T12:20:03.972Z,2.17
2022-12-06T12:22:37.269Z,2.00
2022-12-06T12:25:23.250Z,1.98
2022-12-06T12:27:54.132Z,2.00
2022-12-06T12:30:31.977Z,2.20
2022-12-06T12:33:19.853Z,1.98
2022-12-06T12:35:51.119Z,1.90
2022-12-06T12:38:37.899Z,1.90
2022-12-06T12:41:23.343Z,2.10
2022-12-06T12:44:20.820Z,2.10
2022-12-06T12:46:53.477Z,2.63
2022-12-06T12:49:25.868Z,1.83
2022-12-06T12:51:54.637Z,1.83
2022-12-06T12:54:29.683Z,1.85
2022-12-06T12:56:59.995Z,2.05
2022-12-06T12:59:33.795Z,1.98
2022-12-06T13:02:06.230Z,2.33
2022-12-06T13:04:42.356Z,2.38
2022-12-06T13:07:21.659Z,2.45
2022-12-06T13:09:58.838Z,2.67
2022-12-06T13:12:31.759Z,2.65
2022-12-06T13:15:05.836Z,2.80
2022-12-06T13:20:20.712Z,2.55
2022-12-06T13:22:52.149Z,2.70
2022-12-06T13:25:21.951Z,3.10
2022-12-06T13:27:54.448Z,2.85
2022-12-06T13:30:25.577Z,2.90
2022-12-06T13:32:57.726Z,3.20
2022-12-06T13:35:29.976Z,2.83
2022-12-06T13:38:00.569Z,3.03
2022-12-06T13:40:46.784Z,2.75
2022-12-06T13:43:55.444Z,2.70
2022-12-06T13:46:34.242Z,2.42
2022-12-06T13:49:21.723Z,2.95
2022-12-06T13:51:50.697Z,2.47
2022-12-06T13:54:41.546Z,2.83
2022-12-06T13:57:31.061Z,2.70
2022-12-06T13:59:59.913Z,2.70
2022-12-06T14:02:53.268Z,2.85
2022-12-06T14:06:03.412Z,2.72
2022-12-06T14:08:37.668Z,2.33
2022-12-06T14:11:22.194Z,2.90
2022-12-06T14:14:02.136Z,2.75
2022-12-06T14:16:36.628Z,2.70
2022-12-06T14:19:14.969Z,2.58
2022-12-06T14:21:51.724Z,3.10
2022-12-06T14:24:32.110Z,3.00
2022-12-06T14:27:12.337Z,3.17
2022-12-06T14:29:42.942Z,3.20
2022-12-06T14:32:11.753Z,2.90
2022-12-06T14:34:40.421Z,2.70
2022-12-06T14:37:20.549Z,2.67
2022-12-06T14:42:39.220Z,2.60
2022-12-06T14:45:14.442Z,2.70
2022-12-06T14:47:44.498Z,3.28
2022-12-06T14:50:29.825Z,2.83
2022-12-06T14:53:01.983Z,2.80
2022-12-06T14:55:33.402Z,2.95
2022-12-06T14:58:03.294Z,3.13
2022-12-06T15:00:36.722Z,2.78
2022-12-06T15:03:23.903Z,2.55
2022-12-06T15:06:09.932Z,2.50
2022-12-06T15:08:39.906Z,2.80
2022-12-06T15:11:42.687Z,2.58
2022-12-06T15:14:12.857Z,1.80
2022-12-06T15:16:44.856Z,1.80
2022-12-06T15:19:15.991Z,1.33
2022-12-06T15:21:44.380Z,1.55
2022-12-06T15:24:18.122Z,1.35
2022-12-06T15:26:46.744Z,1.60
2022-12-06T15:29:15.338Z,1.35
2022-12-06T15:31:49.579Z,1.52
2022-12-06T15:34:27.824Z,1.70
2022-12-06T15:37:22.193Z,1.60
2022-12-06T15:39:45.659Z,1.40
2022-12-06T15:42:18.329Z,1.30
2022-12-06T15:44:49.559Z,1.40
2022-12-06T15:47:30.545Z,1.20
2022-12-06T15:49:59.015Z,1.40
2022-12-06T15:52:27.884Z,1.50
2022-12-06T15:54:56.270Z,1.30
2022-12-06T15:57:24.673Z,1.30
2022-12-06T15:59:53.114Z,1.50
2022-12-06T16:02:21.570Z,1.40
2022-12-06T16:04:51.907Z,1.40
2022-12-06T16:07:20.335Z,1.30
2022-12-06T16:09:49.182Z,1.35
2022-12-06T16:12:18.038Z,1.30
2022-12-06T16:14:46.466Z,1.30
2022-12-06T16:17:14.890Z,1.23
2022-12-06T16:20:01.266Z,1.27
2022-12-06T16:22:48.463Z,1.20
2022-12-06T16:25:17.046Z,1.15
2022-12-06T16:27:45.427Z,1.20
2022-12-06T16:30:15.171Z,1.30
2022-12-06T16:32:43.569Z,1.20
2022-12-06T16:35:12.030Z,1.23
2022-12-06T16:37:42.170Z,1.20
2022-12-06T16:40:19.835Z,1.08
2022-12-06T16:42:48.287Z,1.20
2022-12-06T16:45:17.571Z,1.38
2022-12-06T16:47:46.299Z,1.20
2022-12-06T16:50:21.618Z,1.17
2022-12-06T16:52:52.060Z,1.40
2022-12-06T16:55:20.953Z,1.30
2022-12-06T16:57:49.348Z,1.30
2022-12-06T17:00:18.445Z,1.27
2022-12-06T17:02:46.849Z,1.20
2022-12-06T17:05:19.289Z,1.30
2022-12-06T17:07:48.096Z,1.20
2022-12-06T17:10:19.112Z,1.40
2022-12-06T17:12:49.165Z,1.17
2022-12-06T17:15:20.410Z,1.17
2022-12-06T17:17:49.907Z,1.23
2022-12-06T17:20:19.743Z,1.20
2022-12-06T17:22:48.453Z,1.20
2022-12-06T17:25:19.582Z,1.13
2022-12-06T17:27:49.531Z,1.20
2022-12-06T17:30:18.616Z,1.25
2022-12-06T17:32:47.892Z,1.35
2022-12-06T17:35:16.362Z,1.10
2022-12-06T17:37:44.808Z,1.50
2022-12-06T17:40:14.335Z,1.40
2022-12-06T17:42:58.043Z,1.10
2022-12-06T17:45:26.919Z,1.15
2022-12-06T17:47:55.430Z,1.08
2022-12-06T17:50:23.832Z,1.10
2022-12-06T17:52:52.222Z,1.60
2022-12-06T17:55:20.627Z,1.75
2022-12-06T17:57:50.427Z,1.63
2022-12-06T18:00:19.504Z,1.60
2022-12-06T18:02:48.670Z,1.90
2022-12-06T18:05:17.384Z,1.95
2022-12-06T18:07:45.833Z,1.70
2022-12-06T18:10:14.322Z,1.85
2022-12-06T18:12:42.697Z,1.88
2022-12-06T18:15:34.035Z,1.85
2022-12-06T18:18:02.415Z,1.98
2022-12-06T18:20:30.832Z,1.60
2022-12-06T18:22:59.217Z,1.70
2022-12-06T18:25:27.617Z,1.90
2022-12-06T18:27:55.979Z,1.60
2022-12-06T18:30:25.787Z,1.90
2022-12-06T18:32:54.360Z,2.08
2022-12-06T18:35:22.816Z,2.30
2022-12-06T18:37:51.210Z,2.33
2022-12-06T18:40:20.244Z,2.60
2022-12-06T18:42:48.851Z,2.60
2022-12-06T18:45:17.564Z,3.03
2022-12-06T18:47:47.603Z,2.75
2022-12-06T18:50:16.206Z,2.92
2022-12-06T18:52:44.634Z,3.22
2022-12-06T18:55:13.077Z,3.60
2022-12-06T18:57:41.969Z,3.70
2022-12-06T19:00:11.801Z,3.85
2022-12-06T19:02:40.282Z,3.53
2022-12-06T19:05:10.510Z,3.47
2022-12-06T19:07:38.932Z,3.38
2022-12-06T19:10:08.707Z,3.75
2022-12-06T19:12:37.101Z,4.00
2022-12-06T19:15:06.538Z,3.58
2022-12-06T19:17:34.927Z,4.20
2022-12-06T19:20:03.709Z,3.70
2022-12-06T19:22:34.903Z,3.03
2022-12-06T19:25:03.784Z,3.63
2022-12-06T19:27:32.348Z,3.63
2022-12-06T19:30:01.080Z,3.78
2022-12-06T19:32:29.553Z,3.58
2022-12-06T19:34:59.756Z,3.67
2022-12-06T19:37:33.232Z,3.65
2022-12-06T19:40:01.836Z,3.78
2022-12-06T19:42:48.282Z,3.40
2022-12-06T19:47:44.944Z,3.35
2022-12-06T19:50:13.935Z,3.63
2022-12-06T19:52:43.725Z,3.30
2022-12-06T19:55:12.124Z,3.25
2022-12-06T19:57:40.518Z,3.17
2022-12-06T20:00:10.260Z,3.35
2022-12-06T20:02:40.888Z,3.50
2022-12-06T20:05:09.570Z,3.38
2022-12-06T20:07:38.145Z,3.00
2022-12-06T20:10:09.589Z,3.15
2022-12-06T20:12:37.956Z,3.13
2022-12-06T20:15:08.033Z,3.15
2022-12-06T20:17:36.471Z,3.63
2022-12-06T20:20:06.051Z,3.40
2022-12-06T20:22:34.582Z,3.15
2022-12-06T20:25:03.008Z,3.15
2022-12-06T20:27:46.686Z,3.28
2022-12-06T20:30:15.765Z,2.95
2022-12-06T20:32:44.283Z,3.58
2022-12-06T20:35:12.761Z,3.00
2022-12-06T20:37:41.255Z,3.15
2022-12-06T20:40:10.883Z,3.03
2022-12-06T20:42:40.929Z,2.85
2022-12-06T20:45:09.647Z,3.20
2022-12-06T20:47:38.223Z,3.13
2022-12-06T20:50:07.927Z,2.60
2022-12-06T20:52:36.408Z,2.90
2022-12-06T20:55:05.037Z,3.10
2022-12-06T20:57:33.505Z,2.78
2022-12-06T21:00:07.331Z,3.10
2022-12-06T21:02:36.445Z,3.10
2022-12-06T21:05:05.655Z,3.00
2022-12-06T21:07:34.453Z,2.90
2022-12-06T21:10:03.338Z,2.58
2022-12-06T21:12:31.968Z,2.92
2022-12-06T21:15:00.386Z,2.75
2022-12-06T21:17:32.988Z,2.50
2022-12-06T21:20:01.654Z,3.15
2022-12-06T21:22:30.372Z,2.78
2022-12-06T21:24:58.956Z,2.90
2022-12-06T21:27:29.131Z,3.10
2022-12-06T21:29:57.642Z,2.80
2022-12-06T21:32:26.335Z,3.00
2022-12-06T21:34:56.141Z,2.75
2022-12-06T21:37:24.591Z,2.70
2022-12-06T21:39:53.005Z,2.47
2022-12-06T21:42:23.668Z,2.50
2022-12-06T21:44:52.098Z,2.40
2022-12-06T21:47:20.499Z,2.80
2022-12-06T21:49:48.870Z,2.60
2022-12-06T21:52:18.706Z,2.65
2022-12-06T21:54:47.157Z,2.50
2022-12-06T21:57:15.613Z,2.42
2022-12-06T21:59:43.983Z,2.20
2022-12-06T22:02:12.462Z,2.65
2022-12-06T22:04:41.101Z,2.58
2022-12-06T22:07:09.475Z,2.22
2022-12-06T22:09:39.283Z,2.38
2022-12-06T22:12:07.947Z,2.30
2022-12-06T22:14:36.423Z,2.33
2022-12-06T22:17:04.816Z,2.72
2022-12-06T22:19:33.378Z,2.67
2022-12-06T22:22:01.825Z,2.53
2022-12-06T22:24:30.233Z,2.30
2022-12-06T22:26:59.988Z,2.35
2022-12-06T22:29:28.561Z,2.67
2022-12-06T22:31:57.114Z,2.10
2022-12-06T22:34:25.836Z,2.55
2022-12-06T22:36:54.204Z,2.40
2022-12-06T22:39:22.688Z,2.40
2022-12-06T22:41:51.063Z,2.55
2022-12-06T22:44:20.842Z,2.42
2022-12-06T22:46:49.315Z,2.25
2022-12-06T22:49:18.308Z,2.17
2022-12-06T22:51:46.952Z,2.25
2022-12-06T22:54:15.763Z,2.28
2022-12-06T22:56:48.352Z,2.00
2022-12-06T22:59:17.834Z,2.15
2022-12-06T23:01:47.692Z,2.33
2022-12-06T23:04:16.258Z,2.05
2022-12-06T23:06:44.674Z,2.30
2022-12-06T23:09:15.842Z,2.20
2022-12-06T23:11:44.630Z,2.40
2022-12-06T23:14:13.388Z,2.40
2022-12-06T23:16:43.585Z,2.25
2022-12-06T23:19:13.524Z,1.90
2022-12-06T23:21:42.430Z,2.35
2022-12-06T23:24:13.057Z,2.20
2022-12-06T23:26:43.111Z,1.90
2022-12-06T23:29:11.882Z,1.98
2022-12-06T23:31:42.559Z,2.20
2022-12-06T23:34:15.376Z,2.22
2022-12-06T23:36:45.263Z,2.22
2022-12-06T23:39:13.915Z,2.00
2022-12-06T23:41:42.476Z,1.85
2022-12-06T23:44:12.122Z,2.20
2022-12-06T23:46:41.235Z,2.03
2022-12-06T23:49:15.759Z,2.00
2022-12-06T23:51:44.593Z,2.20
2022-12-06T23:54:14.204Z,2.17
2022-12-06T23:56:43.540Z,2.15
2022-12-06T23:59:14.919Z,2.33
